Union Hill, IL (60969)

8:29 AM CST on November 24, 2014 (GMT -0600)
Union Hill | Change Station
CLOSE
Current Station
Personal Weather Station
Location: Union Hill, IL
Elevation: 623 ft
Nearby Weather Stations

Elev 623 ft 41.11 °N, 88.15 °W | Updated 46 seconds ago

Rain
Rain
35.7 °F
Feels Like 27 °F
N
12.0
Wind Variable Wind from West
Gusts 19.0 mph

Today
High -- | Low -- °F
--% Chance of Precip.
Yesterday
High -- | Low -- °F
Precip. -- in
6:50 AM 4:27 PM
Waxing Crescent, 5% visible
Pressure 29.22 in
Visibility 5.0 miles
Clouds Overcast 1000 ft
Windchill 27 °F
Dew Point 35 °F
Humidity 96%
Rainfall 0.46 in
Snow Depth Not available.
UV 0.0 out of 12
Pollen .10 out of 12
Air Quality Not available.
Flu Activity Not available.
METAR KIKK 241415Z AUTO 26022G28KT 5SM DZ OVC010 03/03 A2922 RMK AO2 P0001 T00330025

More Conditions Fewer Conditions

Pressure 29.22 in
Visibility 5.0 miles
Clouds Overcast 1000 ft
Windchill 27 °F
Dew Point 35 °F
Humidity 96%
Rainfall 0.46 in
Snow Depth Not available.
UV 0.0 out of 12
Pollen .10 out of 12
Air Quality Not available.
Flu Activity Not available.
METAR KIKK 241415Z AUTO 26022G28KT 5SM DZ OVC010 03/03 A2922 RMK AO2 P0001 T00330025

More Conditions Fewer Conditions

10-Day Weather Forecast

Almanac

Astronomy

Nov. 24, 2014 Rise Set
Actual Time
Civil Twilight
Nautical Twilight
Astronomical Twilight
Moon
Length of Visible Light
Length of Day
Tomorrow will be .
, % of the Moon is Illuminated

Today's Extremes

State Highs State Lows

Community

WunderPhotos

Upload Photos

1,773,343 photos uploaded!

WunderBlogs® & News

Nearby

Air Quality

  Air Quality AQ Index Pollutant
Not available.

Snow Depth

Station Depth Elevation

Earthquake Activity

City Distance Mag. Time & Date
Minimum magnitude displayed is 2.5.

Coastal Water Temperatures

Place Temperature

Nearby Weather Stations